sensor_id;sensor_type;location;lat;lon;timestamp;pressure;altitude;pressure_sealevel;temperature;humidity
78990;BME280;68390;52.130;21.218;2024-03-08T00:00:15;101442.81;;;-4.49;100.00
78990;BME280;68390;52.130;21.218;2024-03-08T00:02:42;101441.06;;;-4.50;100.00
78990;BME280;68390;52.130;21.218;2024-03-08T00:05:08;101437.56;;;-4.53;100.00
78990;BME280;68390;52.130;21.218;2024-03-08T00:07:38;101442.00;;;-4.52;100.00
78990;BME280;68390;52.130;21.218;2024-03-08T00:10:04;101430.59;;;-4.57;100.00
78990;BME280;68390;52.130;21.218;2024-03-08T00:12:30;101447.50;;;-4.57;100.00
78990;BME280;68390;52.130;21.218;2024-03-08T00:14:56;101435.94;;;-4.57;100.00
78990;BME280;68390;52.130;21.218;2024-03-08T00:17:21;101428.88;;;-4.60;100.00
78990;BME280;68390;52.130;21.218;2024-03-08T00:19:48;101430.69;;;-4.60;100.00
78990;BME280;68390;52.130;21.218;2024-03-08T00:22:15;101430.72;;;-4.62;100.00
78990;BME280;68390;52.130;21.218;2024-03-08T00:24:41;101420.22;;;-4.68;100.00
78990;BME280;68390;52.130;21.218;2024-03-08T00:27:07;101435.25;;;-4.64;100.00
78990;BME280;68390;52.130;21.218;2024-03-08T00:29:34;101427.41;;;-4.70;100.00
78990;BME280;68390;52.130;21.218;2024-03-08T00:31:59;101430.06;;;-4.68;100.00
78990;BME280;68390;52.130;21.218;2024-03-08T00:34:25;101430.09;;;-4.70;100.00
78990;BME280;68390;52.130;21.218;2024-03-08T00:36:51;101436.28;;;-4.68;100.00
78990;BME280;68390;52.130;21.218;2024-03-08T00:39:18;101433.69;;;-4.71;100.00
78990;BME280;68390;52.130;21.218;2024-03-08T00:41:46;101435.63;;;-4.76;100.00
78990;BME280;68390;52.130;21.218;2024-03-08T00:44:11;101427.78;;;-4.82;100.00
78990;BME280;68390;52.130;21.218;2024-03-08T00:46:37;101434.91;;;-4.81;100.00
78990;BME280;68390;52.130;21.218;2024-03-08T00:49:03;101420.88;;;-4.89;100.00
78990;BME280;68390;52.130;21.218;2024-03-08T00:51:28;101429.72;;;-4.87;100.00
78990;BME280;68390;52.130;21.218;2024-03-08T00:53:54;101424.38;;;-4.87;100.00
78990;BME280;68390;52.130;21.218;2024-03-08T00:56:20;101431.50;;;-4.86;100.00
78990;BME280;68390;52.130;21.218;2024-03-08T00:58:45;101427.03;;;-4.87;100.00
78990;BME280;68390;52.130;21.218;2024-03-08T01:01:13;101429.69;;;-4.86;100.00
78990;BME280;68390;52.130;21.218;2024-03-08T01:03:43;101426.25;;;-4.89;100.00
78990;BME280;68390;52.130;21.218;2024-03-08T01:06:08;101426.25;;;-4.89;100.00
78990;BME280;68390;52.130;21.218;2024-03-08T01:08:34;101427.22;;;-4.92;100.00
78990;BME280;68390;52.130;21.218;2024-03-08T01:10:59;101425.53;;;-4.96;100.00
78990;BME280;68390;52.130;21.218;2024-03-08T01:13:25;101422.91;;;-4.97;100.00
78990;BME280;68390;52.130;21.218;2024-03-08T01:15:51;101410.34;;;-4.95;100.00
78990;BME280;68390;52.130;21.218;2024-03-08T01:18:16;101413.13;;;-4.98;100.00
78990;BME280;68390;52.130;21.218;2024-03-08T01:20:42;101419.44;;;-4.99;100.00
78990;BME280;68390;52.130;21.218;2024-03-08T01:23:07;101415.13;;;-5.05;100.00
78990;BME280;68390;52.130;21.218;2024-03-08T01:25:36;101407.25;;;-5.09;100.00
78990;BME280;68390;52.130;21.218;2024-03-08T01:28:01;101414.41;;;-5.10;100.00
78990;BME280;68390;52.130;21.218;2024-03-08T01:30:27;101413.59;;;-5.13;100.00
78990;BME280;68390;52.130;21.218;2024-03-08T01:32:53;101411.84;;;-5.14;100.00
78990;BME280;68390;52.130;21.218;2024-03-08T01:35:19;101407.44;;;-5.17;100.00
78990;BME280;68390;52.130;21.218;2024-03-08T01:37:44;101402.25;;;-5.22;100.00
78990;BME280;68390;52.130;21.218;2024-03-08T01:40:10;101404.94;;;-5.22;100.00
78990;BME280;68390;52.130;21.218;2024-03-08T01:42:36;101409.44;;;-5.24;100.00
78990;BME280;68390;52.130;21.218;2024-03-08T01:45:06;101405.00;;;-5.25;100.00
78990;BME280;68390;52.130;21.218;2024-03-08T01:47:32;101395.31;;;-5.29;100.00
78990;BME280;68390;52.130;21.218;2024-03-08T01:49:59;101410.28;;;-5.22;100.00
78990;BME280;68390;52.130;21.218;2024-03-08T01:52:28;101410.28;;;-5.22;100.00
78990;BME280;68390;52.130;21.218;2024-03-08T01:54:54;101404.97;;;-5.23;100.00
78990;BME280;68390;52.130;21.218;2024-03-08T01:57:20;101397.94;;;-5.27;100.00
78990;BME280;68390;52.130;21.218;2024-03-08T01:59:46;101402.41;;;-5.28;100.00
78990;BME280;68390;52.130;21.218;2024-03-08T02:02:14;101397.19;;;-5.31;100.00
78990;BME280;68390;52.130;21.218;2024-03-08T02:04:43;101402.63;;;-5.34;100.00
78990;BME280;68390;52.130;21.218;2024-03-08T02:07:09;101396.47;;;-5.37;100.00
78990;BME280;68390;52.130;21.218;2024-03-08T02:09:35;101395.59;;;-5.38;100.00
78990;BME280;68390;52.130;21.218;2024-03-08T02:12:00;101388.47;;;-5.39;100.00
78990;BME280;68390;52.130;21.218;2024-03-08T02:14:25;101391.94;;;-5.35;100.00
78990;BME280;68390;52.130;21.218;2024-03-08T02:16:51;101376.84;;;-5.38;100.00
78990;BME280;68390;52.130;21.218;2024-03-08T02:19:16;101384.00;;;-5.38;100.00
78990;BME280;68390;52.130;21.218;2024-03-08T02:21:42;101383.91;;;-5.35;100.00
78990;BME280;68390;52.130;21.218;2024-03-08T02:24:08;101377.78;;;-5.39;100.00
78990;BME280;68390;52.130;21.218;2024-03-08T02:26:34;101380.44;;;-5.39;100.00
78990;BME280;68390;52.130;21.218;2024-03-08T02:29:00;101389.34;;;-5.38;100.00
78990;BME280;68390;52.130;21.218;2024-03-08T02:31:25;101385.00;;;-5.41;100.00
78990;BME280;68390;52.130;21.218;2024-03-08T02:33:50;101382.47;;;-5.47;100.00
78990;BME280;68390;52.130;21.218;2024-03-08T02:36:16;101383.56;;;-5.52;100.00
78990;BME280;68390;52.130;21.218;2024-03-08T02:38:41;101380.00;;;-5.53;100.00
78990;BME280;68390;52.130;21.218;2024-03-08T02:41:07;101377.41;;;-5.56;100.00
78990;BME280;68390;52.130;21.218;2024-03-08T02:43:34;101376.50;;;-5.55;100.00
78990;BME280;68390;52.130;21.218;2024-03-08T02:45:59;101370.34;;;-5.59;100.00
78990;BME280;68390;52.130;21.218;2024-03-08T02:48:25;101375.69;;;-5.59;100.00
78990;BME280;68390;52.130;21.218;2024-03-08T02:50:51;101375.00;;;-5.65;100.00
78990;BME280;68390;52.130;21.218;2024-03-08T02:53:19;101371.44;;;-5.66;100.00
78990;BME280;68390;52.130;21.218;2024-03-08T02:55:44;101376.84;;;-5.67;100.00
78990;BME280;68390;52.130;21.218;2024-03-08T02:58:10;101366.13;;;-5.67;100.00
78990;BME280;68390;52.130;21.218;2024-03-08T03:00:36;101375.03;;;-5.67;100.00
78990;BME280;68390;52.130;21.218;2024-03-08T03:03:02;101361.72;;;-5.68;100.00
78990;BME280;68390;52.130;21.218;2024-03-08T03:05:28;101373.31;;;-5.69;100.00
78990;BME280;68390;52.130;21.218;2024-03-08T03:07:55;101365.53;;;-5.77;100.00
78990;BME280;68390;52.130;21.218;2024-03-08T03:10:20;101367.28;;;-5.76;100.00
78990;BME280;68390;52.130;21.218;2024-03-08T03:12:47;101377.16;;;-5.78;100.00
78990;BME280;68390;52.130;21.218;2024-03-08T03:15:14;101369.16;;;-5.79;100.00
78990;BME280;68390;52.130;21.218;2024-03-08T03:17:40;101371.78;;;-5.78;100.00
78990;BME280;68390;52.130;21.218;2024-03-08T03:20:08;101376.28;;;-5.78;100.00
78990;BME280;68390;52.130;21.218;2024-03-08T03:22:38;101368.25;;;-5.78;100.00
78990;BME280;68390;52.130;21.218;2024-03-08T03:25:04;101370.06;;;-5.80;100.00
78990;BME280;68390;52.130;21.218;2024-03-08T03:27:29;101368.44;;;-5.84;100.00
78990;BME280;68390;52.130;21.218;2024-03-08T03:29:56;101370.19;;;-5.83;100.00
78990;BME280;68390;52.130;21.218;2024-03-08T03:32:23;101369.47;;;-5.88;100.00
78990;BME280;68390;52.130;21.218;2024-03-08T03:34:49;101368.69;;;-5.92;100.00
78990;BME280;68390;52.130;21.218;2024-03-08T03:37:21;101366.06;;;-5.94;100.00
78990;BME280;68390;52.130;21.218;2024-03-08T03:39:46;101360.75;;;-5.95;100.00
78990;BME280;68390;52.130;21.218;2024-03-08T03:42:17;101366.09;;;-5.95;100.00
78990;BME280;68390;52.130;21.218;2024-03-08T03:44:47;101361.63;;;-5.95;100.00
78990;BME280;68390;52.130;21.218;2024-03-08T03:47:14;101359.88;;;-5.96;100.00
78990;BME280;68390;52.130;21.218;2024-03-08T03:49:42;101354.66;;;-6.02;100.00
78990;BME280;68390;52.130;21.218;2024-03-08T03:52:09;101348.56;;;-6.05;100.00
78990;BME280;68390;52.130;21.218;2024-03-08T03:54:34;101352.16;;;-6.06;100.00
78990;BME280;68390;52.130;21.218;2024-03-08T03:57:00;101347.69;;;-6.06;100.00
78990;BME280;68390;52.130;21.218;2024-03-08T03:59:26;101353.81;;;-6.02;100.00
78990;BME280;68390;52.130;21.218;2024-03-08T04:01:53;101346.72;;;-6.03;100.00
78990;BME280;68390;52.130;21.218;2024-03-08T04:04:20;101343.25;;;-6.07;100.00
78990;BME280;68390;52.130;21.218;2024-03-08T04:06:45;101351.97;;;-6.00;100.00
78990;BME280;68390;52.130;21.218;2024-03-08T04:09:11;101358.28;;;-6.03;100.00
78990;BME280;68390;52.130;21.218;2024-03-08T04:11:38;101353.88;;;-6.04;100.00
78990;BME280;68390;52.130;21.218;2024-03-08T04:14:03;101345.84;;;-6.04;100.00
78990;BME280;68390;52.130;21.218;2024-03-08T04:16:30;101346.75;;;-6.05;100.00
78990;BME280;68390;52.130;21.218;2024-03-08T04:18:57;101341.44;;;-6.06;100.00
78990;BME280;68390;52.130;21.218;2024-03-08T04:21:22;101350.38;;;-6.07;100.00
78990;BME280;68390;52.130;21.218;2024-03-08T04:23:48;101348.69;;;-6.11;100.00
78990;BME280;68390;52.130;21.218;2024-03-08T04:26:13;101336.59;;;-6.23;100.00
78990;BME280;68390;52.130;21.218;2024-03-08T04:28:39;101349.84;;;-6.20;100.00
78990;BME280;68390;52.130;21.218;2024-03-08T04:31:05;101342.84;;;-6.24;100.00
78990;BME280;68390;52.130;21.218;2024-03-08T04:33:30;101342.91;;;-6.27;100.00
78990;BME280;68390;52.130;21.218;2024-03-08T04:35:56;101350.78;;;-6.22;100.00
78990;BME280;68390;52.130;21.218;2024-03-08T04:38:22;101349.09;;;-6.25;100.00
78990;BME280;68390;52.130;21.218;2024-03-08T04:40:49;101344.59;;;-6.23;100.00
78990;BME280;68390;52.130;21.218;2024-03-08T04:43:14;101346.44;;;-6.25;100.00
78990;BME280;68390;52.130;21.218;2024-03-08T04:45:40;101344.69;;;-6.26;100.00
78990;BME280;68390;52.130;21.218;2024-03-08T04:48:09;101347.38;;;-6.27;100.00
78990;BME280;68390;52.130;21.218;2024-03-08T04:50:34;101340.28;;;-6.28;100.00
78990;BME280;68390;52.130;21.218;2024-03-08T04:53:00;101343.84;;;-6.28;100.00
78990;BME280;68390;52.130;21.218;2024-03-08T04:55:25;101348.19;;;-6.24;100.00
78990;BME280;68390;52.130;21.218;2024-03-08T04:57:50;101346.44;;;-6.25;100.00
78990;BME280;68390;52.130;21.218;2024-03-08T05:00:16;101345.59;;;-6.27;100.00
78990;BME280;68390;52.130;21.218;2024-03-08T05:02:42;101348.41;;;-6.33;100.00
78990;BME280;68390;52.130;21.218;2024-03-08T05:05:08;101345.81;;;-6.35;100.00
78990;BME280;68390;52.130;21.218;2024-03-08T05:07:40;101350.97;;;-6.28;100.00
78990;BME280;68390;52.130;21.218;2024-03-08T05:10:06;101349.19;;;-6.28;100.00
78990;BME280;68390;52.130;21.218;2024-03-08T05:12:33;101336.59;;;-6.23;100.00
78990;BME280;68390;52.130;21.218;2024-03-08T05:14:58;101348.94;;;-6.19;100.00
78990;BME280;68390;52.130;21.218;2024-03-08T05:17:24;101348.09;;;-6.21;100.00
78990;BME280;68390;52.130;21.218;2024-03-08T05:19:50;101355.13;;;-6.17;100.00
78990;BME280;68390;52.130;21.218;2024-03-08T05:22:16;101353.28;;;-6.15;100.00
78990;BME280;68390;52.130;21.218;2024-03-08T05:24:41;101347.03;;;-6.14;100.00
78990;BME280;68390;52.130;21.218;2024-03-08T05:27:07;101345.16;;;-6.12;100.00
78990;BME280;68390;52.130;21.218;2024-03-08T05:29:33;101346.78;;;-6.06;100.00
78990;BME280;68390;52.130;21.218;2024-03-08T05:31:58;101355.50;;;-6.00;100.00
78990;BME280;68390;52.130;21.218;2024-03-08T05:34:24;101343.94;;;-6.00;100.00
78990;BME280;68390;52.130;21.218;2024-03-08T05:36:51;101346.50;;;-5.96;100.00
78990;BME280;68390;52.130;21.218;2024-03-08T05:39:18;101345.47;;;-5.92;100.00
78990;BME280;68390;52.130;21.218;2024-03-08T05:41:44;101333.94;;;-5.92;100.00
78990;BME280;68390;52.130;21.218;2024-03-08T05:44:11;101342.66;;;-5.87;100.00
78990;BME280;68390;52.130;21.218;2024-03-08T05:46:37;101354.00;;;-5.79;100.00
78990;BME280;68390;52.130;21.218;2024-03-08T05:49:03;101344.97;;;-5.75;100.00
78990;BME280;68390;52.130;21.218;2024-03-08T05:51:32;101343.03;;;-5.70;100.00
78990;BME280;68390;52.130;21.218;2024-03-08T05:54:02;101341.03;;;-5.62;100.00
78990;BME280;68390;52.130;21.218;2024-03-08T05:56:29;101344.41;;;-5.57;100.00
78990;BME280;68390;52.130;21.218;2024-03-08T05:58:55;101339.88;;;-5.53;100.00
78990;BME280;68390;52.130;21.218;2024-03-08T06:01:20;101336.06;;;-5.46;100.00
78990;BME280;68390;52.130;21.218;2024-03-08T06:03:47;101345.53;;;-5.34;100.00
78990;BME280;68390;52.130;21.218;2024-03-08T06:06:14;101347.03;;;-5.26;100.00
78990;BME280;68390;52.130;21.218;2024-03-08T06:08:40;101347.59;;;-5.14;100.00
78990;BME280;68390;52.130;21.218;2024-03-08T06:11:08;101343.78;;;-5.07;100.00
78990;BME280;68390;52.130;21.218;2024-03-08T06:13:34;101353.47;;;-5.03;100.00
78990;BME280;68390;52.130;21.218;2024-03-08T06:16:00;101341.84;;;-5.02;100.00
78990;BME280;68390;52.130;21.218;2024-03-08T06:18:29;101348.63;;;-4.91;100.00
78990;BME280;68390;52.130;21.218;2024-03-08T06:20:54;101351.97;;;-4.84;100.00
78990;BME280;68390;52.130;21.218;2024-03-08T06:23:21;101356.97;;;-4.73;100.00
78990;BME280;68390;52.130;21.218;2024-03-08T06:25:47;101343.22;;;-4.63;100.00
78990;BME280;68390;52.130;21.218;2024-03-08T06:28:12;101350.75;;;-4.48;100.00
78990;BME280;68390;52.130;21.218;2024-03-08T06:30:39;101345.78;;;-4.33;100.00
78990;BME280;68390;52.130;21.218;2024-03-08T06:33:05;101355.09;;;-4.19;100.00
78990;BME280;68390;52.130;21.218;2024-03-08T06:35:30;101349.06;;;-4.00;100.00
78990;BME280;68390;52.130;21.218;2024-03-08T06:37:58;101350.59;;;-3.93;100.00
78990;BME280;68390;52.130;21.218;2024-03-08T06:40:23;101354.78;;;-3.85;100.00
78990;BME280;68390;52.130;21.218;2024-03-08T06:42:49;101347.94;;;-3.70;100.00
78990;BME280;68390;52.130;21.218;2024-03-08T06:45:15;101344.69;;;-3.55;100.00
78990;BME280;68390;52.130;21.218;2024-03-08T06:47:44;101348.78;;;-3.45;100.00
78990;BME280;68390;52.130;21.218;2024-03-08T06:50:11;101350.84;;;-3.29;100.00
78990;BME280;68390;52.130;21.218;2024-03-08T06:52:36;101345.84;;;-3.15;100.00
78990;BME280;68390;52.130;21.218;2024-03-08T06:55:02;101349.78;;;-3.02;100.00
78990;BME280;68390;52.130;21.218;2024-03-08T06:57:30;101354.47;;;-2.85;100.00
78990;BME280;68390;52.130;21.218;2024-03-08T06:59:56;101344.94;;;-2.71;100.00
78990;BME280;68390;52.130;21.218;2024-03-08T07:02:25;101336.31;;;-2.59;100.00
78990;BME280;68390;52.130;21.218;2024-03-08T07:04:51;101349.50;;;-2.31;100.00
78990;BME280;68390;52.130;21.218;2024-03-08T07:07:18;101345.88;;;-2.09;100.00
78990;BME280;68390;52.130;21.218;2024-03-08T07:09:48;101352.44;;;-1.96;100.00
78990;BME280;68390;52.130;21.218;2024-03-08T07:12:14;101350.84;;;-1.80;100.00
78990;BME280;68390;52.130;21.218;2024-03-08T07:14:40;101345.06;;;-1.52;100.00
78990;BME280;68390;52.130;21.218;2024-03-08T07:17:07;101349.25;;;-1.26;100.00
78990;BME280;68390;52.130;21.218;2024-03-08T07:19:37;101336.41;;;-0.84;100.00
78990;BME280;68390;52.130;21.218;2024-03-08T07:22:04;101336.31;;;-0.46;100.00
78990;BME280;68390;52.130;21.218;2024-03-08T07:24:30;101332.38;;;-0.22;100.00
78990;BME280;68390;52.130;21.218;2024-03-08T07:27:13;101336.09;;;-0.07;100.00
78990;BME280;68390;52.130;21.218;2024-03-08T07:29:39;101335.03;;;0.13;100.00
78990;BME280;68390;52.130;21.218;2024-03-08T07:32:05;101338.59;;;0.30;100.00
78990;BME280;68390;52.130;21.218;2024-03-08T07:34:50;101335.25;;;0.25;100.00
78990;BME280;68390;52.130;21.218;2024-03-08T07:37:17;101332.31;;;0.30;100.00
78990;BME280;68390;52.130;21.218;2024-03-08T07:39:43;101329.06;;;0.41;100.00
78990;BME280;68390;52.130;21.218;2024-03-08T07:42:09;101334.13;;;0.62;100.00
78990;BME280;68390;52.130;21.218;2024-03-08T07:44:35;101327.72;;;0.81;100.00
78990;BME280;68390;52.130;21.218;2024-03-08T07:47:00;101333.91;;;0.98;100.00
78990;BME280;68390;52.130;21.218;2024-03-08T07:49:26;101324.75;;;1.32;100.00
78990;BME280;68390;52.130;21.218;2024-03-08T07:51:51;101325.75;;;1.61;100.00
78990;BME280;68390;52.130;21.218;2024-03-08T07:54:17;101323.22;;;1.88;100.00
78990;BME280;68390;52.130;21.218;2024-03-08T07:56:43;101325.22;;;2.14;100.00
78990;BME280;68390;52.130;21.218;2024-03-08T07:59:08;101327.41;;;2.38;100.00
78990;BME280;68390;52.130;21.218;2024-03-08T08:01:34;101331.75;;;2.54;100.00
78990;BME280;68390;52.130;21.218;2024-03-08T08:03:59;101322.44;;;2.73;100.00
78990;BME280;68390;52.130;21.218;2024-03-08T08:06:27;101323.50;;;2.70;100.00
78990;BME280;68390;52.130;21.218;2024-03-08T08:08:52;101327.78;;;2.74;100.00
78990;BME280;68390;52.130;21.218;2024-03-08T08:11:18;101326.63;;;2.78;100.00
78990;BME280;68390;52.130;21.218;2024-03-08T08:13:45;101329.03;;;2.83;100.00
78990;BME280;68390;52.130;21.218;2024-03-08T08:16:11;101324.38;;;2.85;100.00
78990;BME280;68390;52.130;21.218;2024-03-08T08:18:38;101316.91;;;2.88;100.00
78990;BME280;68390;52.130;21.218;2024-03-08T08:21:05;101321.94;;;2.94;100.00
78990;BME280;68390;52.130;21.218;2024-03-08T08:23:32;101316.69;;;3.06;100.00
78990;BME280;68390;52.130;21.218;2024-03-08T08:25:57;101320.25;;;3.20;100.00
78990;BME280;68390;52.130;21.218;2024-03-08T08:28:23;101316.81;;;3.31;100.00
78990;BME280;68390;52.130;21.218;2024-03-08T08:30:49;101302.63;;;3.40;100.00
78990;BME280;68390;52.130;21.218;2024-03-08T08:33:15;101305.59;;;3.50;100.00
78990;BME280;68390;52.130;21.218;2024-03-08T08:35:41;101309.72;;;3.55;100.00
78990;BME280;68390;52.130;21.218;2024-03-08T08:38:08;101309.00;;;3.66;100.00
78990;BME280;68390;52.130;21.218;2024-03-08T08:40:34;101307.88;;;3.83;100.00
78990;BME280;68390;52.130;21.218;2024-03-08T08:43:01;101305.63;;;4.02;100.00
78990;BME280;68390;52.130;21.218;2024-03-08T08:45:32;101306.84;;;4.11;97.59
78990;BME280;68390;52.130;21.218;2024-03-08T08:47:58;101301.81;;;4.17;96.44
78990;BME280;68390;52.130;21.218;2024-03-08T08:50:26;101301.53;;;4.22;100.00
78990;BME280;68390;52.130;21.218;2024-03-08T08:52:53;101292.81;;;4.29;98.12
78990;BME280;68390;52.130;21.218;2024-03-08T08:55:19;101291.38;;;4.36;99.36
78990;BME280;68390;52.130;21.218;2024-03-08T08:57:51;101294.97;;;4.50;97.71
78990;BME280;68390;52.130;21.218;2024-03-08T09:00:18;101286.06;;;4.48;93.08
78990;BME280;68390;52.130;21.218;2024-03-08T09:02:45;101284.88;;;4.52;91.53
78990;BME280;68390;52.130;21.218;2024-03-08T09:05:10;101290.63;;;4.47;90.26
78990;BME280;68390;52.130;21.218;2024-03-08T09:07:44;101290.19;;;4.53;91.29
78990;BME280;68390;52.130;21.218;2024-03-08T09:10:10;101292.56;;;4.58;87.54
78990;BME280;68390;52.130;21.218;2024-03-08T09:12:38;101278.75;;;4.61;92.03
78990;BME280;68390;52.130;21.218;2024-03-08T09:15:05;101279.72;;;4.72;92.18
78990;BME280;68390;52.130;21.218;2024-03-08T09:17:33;101270.88;;;4.82;94.12
78990;BME280;68390;52.130;21.218;2024-03-08T09:19:59;101272.81;;;4.92;90.20
78990;BME280;68390;52.130;21.218;2024-03-08T09:22:24;101268.34;;;5.04;89.39
78990;BME280;68390;52.130;21.218;2024-03-08T09:24:50;101268.34;;;5.04;83.14
78990;BME280;68390;52.130;21.218;2024-03-08T09:27:16;101270.72;;;5.08;84.41
78990;BME280;68390;52.130;21.218;2024-03-08T09:29:41;101265.56;;;5.16;84.34
78990;BME280;68390;52.130;21.218;2024-03-08T09:32:07;101262.16;;;5.26;87.09
78990;BME280;68390;52.130;21.218;2024-03-08T09:34:32;101263.41;;;5.33;86.80
78990;BME280;68390;52.130;21.218;2024-03-08T09:36:58;101252.31;;;5.36;81.07
78990;BME280;68390;52.130;21.218;2024-03-08T09:39:23;101263.84;;;5.39;79.99
78990;BME280;68390;52.130;21.218;2024-03-08T09:41:49;101259.00;;;5.43;82.54
78990;BME280;68390;52.130;21.218;2024-03-08T09:44:17;101258.69;;;5.47;80.31
78990;BME280;68390;52.130;21.218;2024-03-08T09:46:45;101264.28;;;5.57;82.32
78990;BME280;68390;52.130;21.218;2024-03-08T09:49:13;101255.09;;;5.47;77.77
78990;BME280;68390;52.130;21.218;2024-03-08T09:51:38;101258.31;;;5.52;78.04
78990;BME280;68390;52.130;21.218;2024-03-08T09:54:07;101253.66;;;5.65;82.23
78990;BME280;68390;52.130;21.218;2024-03-08T09:56:34;101252.94;;;5.74;79.70
78990;BME280;68390;52.130;21.218;2024-03-08T09:59:00;101257.94;;;5.80;76.35
78990;BME280;68390;52.130;21.218;2024-03-08T10:01:44;101246.88;;;5.71;73.73
78990;BME280;68390;52.130;21.218;2024-03-08T10:04:10;101245.59;;;5.64;70.41
78990;BME280;68390;52.130;21.218;2024-03-08T10:06:45;101253.66;;;5.65;72.50
78990;BME280;68390;52.130;21.218;2024-03-08T10:09:12;101240.31;;;5.73;77.13
78990;BME280;68390;52.130;21.218;2024-03-08T10:11:37;101248.53;;;5.84;79.58
78990;BME280;68390;52.130;21.218;2024-03-08T10:14:04;101245.63;;;5.99;80.76
78990;BME280;68390;52.130;21.218;2024-03-08T10:16:31;101243.91;;;5.98;78.28
78990;BME280;68390;52.130;21.218;2024-03-08T10:18:57;101238.78;;;5.93;79.65
78990;BME280;68390;52.130;21.218;2024-03-08T10:21:22;101239.66;;;5.94;78.39
78990;BME280;68390;52.130;21.218;2024-03-08T10:23:48;101239.56;;;6.06;79.02
78990;BME280;68390;52.130;21.218;2024-03-08T10:26:15;101241.34;;;6.18;75.97
78990;BME280;68390;52.130;21.218;2024-03-08T10:28:45;101246.69;;;6.31;75.30
78990;BME280;68390;52.130;21.218;2024-03-08T10:31:11;101232.66;;;6.47;77.11
78990;BME280;68390;52.130;21.218;2024-03-08T10:33:36;101239.00;;;6.58;75.38
78990;BME280;68390;52.130;21.218;2024-03-08T10:36:03;101226.72;;;6.64;76.06
78990;BME280;68390;52.130;21.218;2024-03-08T10:38:31;101229.56;;;6.74;75.62
78990;BME280;68390;52.130;21.218;2024-03-08T10:41:01;101227.72;;;6.74;72.05
78990;BME280;68390;52.130;21.218;2024-03-08T10:43:32;101229.56;;;6.85;73.44
78990;BME280;68390;52.130;21.218;2024-03-08T10:48:55;101225.31;;;7.03;72.71
78990;BME280;68390;52.130;21.218;2024-03-08T10:51:24;101218.84;;;7.04;71.44
78990;BME280;68390;52.130;21.218;2024-03-08T10:53:51;101222.94;;;6.98;70.02
78990;BME280;68390;52.130;21.218;2024-03-08T10:56:17;101222.28;;;7.06;73.32
78990;BME280;68390;52.130;21.218;2024-03-08T10:58:43;101214.38;;;7.03;65.76
78990;BME280;68390;52.130;21.218;2024-03-08T11:01:09;101221.06;;;6.99;64.66
78990;BME280;68390;52.130;21.218;2024-03-08T11:06:10;101211.38;;;7.06;63.49
78990;BME280;68390;52.130;21.218;2024-03-08T11:08:40;101218.94;;;7.14;64.43
78990;BME280;68390;52.130;21.218;2024-03-08T11:11:32;101209.56;;;7.27;65.39
78990;BME280;68390;52.130;21.218;2024-03-08T11:14:00;101205.94;;;7.38;65.11
78990;BME280;68390;52.130;21.218;2024-03-08T11:18:58;101214.13;;;7.38;61.89
78990;BME280;68390;52.130;21.218;2024-03-08T11:21:32;101203.06;;;7.40;58.90
78990;BME280;68390;52.130;21.218;2024-03-08T11:24:00;101192.88;;;7.42;56.68
78990;BME280;68390;52.130;21.218;2024-03-08T11:26:26;101193.69;;;7.53;61.07
78990;BME280;68390;52.130;21.218;2024-03-08T11:28:51;101199.03;;;7.55;61.32
78990;BME280;68390;52.130;21.218;2024-03-08T11:33:47;101187.78;;;7.69;59.22
78990;BME280;68390;52.130;21.218;2024-03-08T11:36:23;101181.25;;;7.81;58.98
78990;BME280;68390;52.130;21.218;2024-03-08T11:38:50;101186.06;;;7.89;57.66
78990;BME280;68390;52.130;21.218;2024-03-08T11:41:22;101187.38;;;7.94;54.21
78990;BME280;68390;52.130;21.218;2024-03-08T11:43:49;101172.72;;;7.95;54.66
78990;BME280;68390;52.130;21.218;2024-03-08T11:46:16;101176.88;;;7.99;54.20
78990;BME280;68390;52.130;21.218;2024-03-08T11:48:44;101170.22;;;7.92;49.85
78990;BME280;68390;52.130;21.218;2024-03-08T11:51:13;101165.88;;;7.90;49.27
78990;BME280;68390;52.130;21.218;2024-03-08T11:53:40;101161.78;;;7.95;50.86
78990;BME280;68390;52.130;21.218;2024-03-08T11:56:09;101162.38;;;7.99;52.03
78990;BME280;68390;52.130;21.218;2024-03-08T11:58:35;101157.47;;;8.02;51.32
78990;BME280;68390;52.130;21.218;2024-03-08T12:01:08;101156.22;;;8.06;51.38
78990;BME280;68390;52.130;21.218;2024-03-08T12:03:42;101156.22;;;8.06;51.13
78990;BME280;68390;52.130;21.218;2024-03-08T12:06:11;101154.63;;;8.04;49.80
78990;BME280;68390;52.130;21.218;2024-03-08T12:08:39;101151.88;;;8.04;47.84
78990;BME280;68390;52.130;21.218;2024-03-08T12:11:04;101146.28;;;8.05;48.76
78990;BME280;68390;52.130;21.218;2024-03-08T12:13:32;101145.81;;;8.00;48.35
78990;BME280;68390;52.130;21.218;2024-03-08T12:16:02;101148.28;;;8.03;47.66
78990;BME280;68390;52.130;21.218;2024-03-08T12:18:38;101140.19;;;8.02;49.68
78990;BME280;68390;52.130;21.218;2024-03-08T12:21:09;101127.56;;;8.10;48.47
78990;BME280;68390;52.130;21.218;2024-03-08T12:23:36;101129.50;;;8.20;46.93
78990;BME280;68390;52.130;21.218;2024-03-08T12:26:35;101125.34;;;8.25;47.25
78990;BME280;68390;52.130;21.218;2024-03-08T12:29:19;101123.19;;;8.19;46.08
78990;BME280;68390;52.130;21.218;2024-03-08T12:31:51;101125.03;;;8.19;45.90
78990;BME280;68390;52.130;21.218;2024-03-08T12:34:19;101118.09;;;8.15;47.28
78990;BME280;68390;52.130;21.218;2024-03-08T12:36:48;101118.66;;;8.08;46.08
78990;BME280;68390;52.130;21.218;2024-03-08T12:39:16;101112.97;;;8.00;46.42
78990;BME280;68390;52.130;21.218;2024-03-08T12:41:43;101113.72;;;8.02;46.85
78990;BME280;68390;52.130;21.218;2024-03-08T12:44:09;101109.47;;;8.09;47.32
78990;BME280;68390;52.130;21.218;2024-03-08T12:46:37;101107.50;;;8.00;45.04